Azalea Ace — A8ZJ6 — position and weather

sailwx.info

Track history (hours):
 
Tides and Currents Weather Stations Pressure Air Temp Water Temp Dewpoint Dewpoint Depression Visibility Wind Speed Wind Dir Waves Ship Positions

Azalea Ace

Last reported at 2016-May-05 12:05 UTC. Time now 2016-May-05 23:52 UTC.
Position N 29°47' E 122°03'.

Length 180 m; draft 6.2 m.

Type: Cargo ship. MMSI: 636015228.

Date/timePositionNaut miles runAvg speedWind from/ knotsBaromVisibWave heightAir tempDewpointWater temp
2016-May-05 12:05N 29°47' E 122°03'0 0.0
2016-May-05 09:05N 29°46' E 122°03'0 0.1
2016-May-05 08:30N 29°46' E 122°03'9 9.6
2016-May-05 07:33N 29°51' E 122°12'2 2.0
2016-May-05 06:22N 29°53' E 122°13'0 0.0
2016-May-05 05:31N 29°53' E 122°13'0 0.0
2016-May-05 04:13N 29°53' E 122°13'0 0.0
2016-May-05 03:19N 29°53' E 122°13'3 3.8
2016-May-05 02:33N 29°50' E 122°13'9 8.6
2016-May-05 01:33N 29°45' E 122°21'2 0.3
2016-May-04 20:15N 29°47' E 122°21'0 0.1
2016-May-04 19:27N 29°47' E 122°21'0 0.0
2016-May-04 18:33N 29°47' E 122°21'0 0.0
2016-May-04 17:09N 29°47' E 122°21'0 0.0
2016-May-04 16:33N 29°47' E 122°21'0 0.1
2016-May-04 15:27N 29°47' E 122°21'0 0.0
2016-May-04 14:27N 29°47' E 122°21'0 0.0
2016-May-04 13:21N 29°47' E 122°21'0 0.0
2016-May-04 12:09N 29°47' E 122°21'1 1.1
2016-May-04 11:33N 29°47' E 122°22'1211.6
2016-May-04 10:33N 29°42' E 122°34'  
2016-Apr-28 20:08N 01°15' E 104°06'610.3
2016-Apr-28 19:33N 01°16' E 103°60'2 1.7
2016-Apr-28 18:30N 01°18' E 103°59'0 0.0
2016-Apr-28 17:27N 01°18' E 103°59'0 0.0
2016-Apr-28 15:33N 01°18' E 103°59'0 0.0
2016-Apr-28 14:06N 01°18' E 103°59'0 0.0
2016-Apr-28 12:30N 01°18' E 103°59'0 0.1
2016-Apr-28 11:33N 01°17' E 103°59'7 7.0
2016-Apr-28 10:33N 01°12' E 103°54'1010.4
2016-Apr-28 09:33N 01°07' E 103°45'  
Track history (hours):
 
Tides and Currents Weather Stations Pressure Air Temp Water Temp Dewpoint Dewpoint Depression Visibility Wind Speed Wind Dir Waves Ship Positions

Azalea Ace

Last reported at 2016-May-05 12:05 UTC. Time now 2016-May-05 23:52 UTC.
Position N 29°47' E 122°03'.

Length 180 m; draft 6.2 m.

Type: Cargo ship. MMSI: 636015228.

Date/timePositionNaut miles runAvg speedWind from/ knotsBaromVisibWave heightAir tempDewpointWater temp
2016-May-05 12:05N 29°47' E 122°03'0 0.0
2016-May-05 09:05N 29°46' E 122°03'0 0.1
2016-May-05 08:30N 29°46' E 122°03'9 9.6
2016-May-05 07:33N 29°51' E 122°12'2 2.0
2016-May-05 06:22N 29°53' E 122°13'0 0.0
2016-May-05 05:31N 29°53' E 122°13'0 0.0
2016-May-05 04:13N 29°53' E 122°13'0 0.0
2016-May-05 03:19N 29°53' E 122°13'3 3.8
2016-May-05 02:33N 29°50' E 122°13'9 8.6
2016-May-05 01:33N 29°45' E 122°21'2 0.3
2016-May-04 20:15N 29°47' E 122°21'0 0.1
2016-May-04 19:27N 29°47' E 122°21'0 0.0
2016-May-04 18:33N 29°47' E 122°21'0 0.0
2016-May-04 17:09N 29°47' E 122°21'0 0.0
2016-May-04 16:33N 29°47' E 122°21'0 0.1
2016-May-04 15:27N 29°47' E 122°21'0 0.0
2016-May-04 14:27N 29°47' E 122°21'0 0.0
2016-May-04 13:21N 29°47' E 122°21'0 0.0
2016-May-04 12:09N 29°47' E 122°21'1 1.1
2016-May-04 11:33N 29°47' E 122°22'1211.6
2016-May-04 10:33N 29°42' E 122°34'  
2016-Apr-28 20:08N 01°15' E 104°06'610.3
2016-Apr-28 19:33N 01°16' E 103°60'2 1.7
2016-Apr-28 18:30N 01°18' E 103°59'0 0.0
2016-Apr-28 17:27N 01°18' E 103°59'0 0.0
2016-Apr-28 15:33N 01°18' E 103°59'0 0.0
2016-Apr-28 14:06N 01°18' E 103°59'0 0.0
2016-Apr-28 12:30N 01°18' E 103°59'0 0.1
2016-Apr-28 11:33N 01°17' E 103°59'7 7.0
2016-Apr-28 10:33N 01°12' E 103°54'1010.4
2016-Apr-28 09:33N 01°07' E 103°45'  

Dump ship's entire track history